Terminal Aerodrome Forecast
Issued by NWS

Home | Current Version | Previous Version | Text Only | Print | Product List | Glossary On
Versions: 1 2 3 4 5 6 7 8 9 10 11 12 13
000
FTUS41 KLWX 261100
TAFMTN
TAF
KMTN 261134Z 2612/2712 VRB04KT P6SM FEW050 BKN130
     FM261600 18009KT P6SM VCTS BKN050CB BKN130
     FM270000 17004KT P6SM FEW050 BKN130=

USA.gov is the U.S. government's official web portal to all federal, state and local government web resources and services.